M I D A S
Marine Information and Data Acquisition System
Tripno 1459 of the Zeeleeuw from 2008-04-16 12:02:27 to 2008-04-16 15:10:35
Back to CruiseResearch ActivitiesStationsMapUnderway DataData graphs

EquipmentUnitsComment
TimeDGPSUTC
LatitudeDGPSDM.mWGS84
LongitudeDGPSDM.mWGS84
TemperatureSBE03/SBE38deg celciusITS90
ConductivitySBE21S/mITS90
SalinitySBE21 Practical Salinity Units
ChlorophylAChelsea fluorimeterg/lCalibrated in Aceton
Missing or incorrect values are displayed as -999
Sea surface data collected by the RV Zeeleeuw from 2008-04-16 07:38:16 to 2008-04-16 15:16:52
Time Latitude Longitude Temperature Conductivity Salinity ChlorophylA
2008-04-16 07:39:21 51°13.665 2°55.956 15.9523 0.008455 0.047411 -1.801521
2008-04-16 07:40:21 51°13.665 2°55.956 15.9586 0.008455 0.047416 -1.801521
2008-04-16 07:41:21 51°13.664 2°55.955 15.9419 0.008455 0.047422 -1.801521
2008-04-16 07:42:21 51°13.674 2°55.923 15.9412 0.008455 0.047427 -1.801521
2008-04-16 07:43:21 51°13.685 2°55.844 15.9987 0.008455 0.047433 -1.801521
2008-04-16 07:44:21 51°13.686 2°55.769 15.9966 0.008455 0.047439 -1.801521
2008-04-16 07:45:21 51°13.687 2°55.743 16.0041 0.008455 0.047445 -1.801521
2008-04-16 07:46:19 51°13.707 2°55.742 16.176 0.008455 0.047452 -1.801521
2008-04-16 07:47:19 51°13.771 2°55.686 15.9116 0.008455 0.047456 -1.801521
2008-04-16 07:48:18 51°13.859 2°55.609 15.8922 0.008455 0.047462 -1.801521
2008-04-16 07:49:21 51°13.977 2°55.524 15.9557 0.008455 0.047468 -1.801521
2008-04-16 07:50:21 51°14.071 2°55.449 16.0201 0.008455 0.047474 -1.801521
2008-04-16 07:51:21 51°14.15 2°55.384 16.0301 0.008455 0.047478 -1.801521
2008-04-16 07:52:21 51°14.235 2°55.292 16.0552 0.008455 0.047484 -1.801521
2008-04-16 07:53:20 51°14.313 2°55.157 15.9136 0.008455 0.04749 -1.801521
2008-04-16 07:54:19 51°14.399 2°55.002 15.8985 0.008455 0.047495 -1.801521
2008-04-16 07:55:18 51°14.509 2°54.787 15.4346 0.008455 0.047504 -1.801521
2008-04-16 07:56:17 51°14.633 2°54.541 15.6093 0.008455 0.04751 -1.801521
2008-04-16 07:57:18 51°14.75 2°54.273 15.6718 0.008455 0.047516 -1.801521
2008-04-16 07:58:17 51°14.808 2°53.975 15.6519 0.008455 0.04752 -1.801521
2008-04-16 07:59:17 51°14.848 2°53.664 15.6584 0.008455 0.047527 -1.766697
2008-04-16 08:00:17 51°14.884 2°53.351 15.6676 0.008455 0.047532 -1.801521
2008-04-16 08:01:17 51°14.886 2°53.038 15.6797 0.008455 0.047538 -1.801521
2008-04-16 08:02:17 51°14.893 2°52.722 15.6272 0.008455 0.047543 -1.801521
2008-04-16 08:03:16 51°14.909 2°52.41 15.656 0.008455 0.04755 -1.801521
2008-04-16 08:04:16 51°14.914 2°52.092 15.6752 0.008455 0.047554 -1.801521
2008-04-16 08:05:17 51°14.908 2°51.769 15.7174 0.008455 0.047562 -1.801521
2008-04-16 08:06:16 51°14.866 2°51.466 15.7289 0.008455 0.047569 -1.801521
2008-04-16 08:07:17 51°14.822 2°51.154 15.7313 0.008455 0.047576 -1.801521
2008-04-16 08:08:16 51°14.758 2°50.865 16.1531 0.008455 0.04758 -1.801521
2008-04-16 08:09:16 51°14.667 2°50.682 15.9015 0.008558 0.048094 -1.766697
2008-04-16 08:10:16 51°14.604 2°50.622 15.9505 0.008455 0.047588 -1.766697
2008-04-16 08:11:17 51°14.577 2°50.555 15.936 0.008455 0.047597 -1.766697
2008-04-16 08:12:16 51°14.555 2°50.493 15.9617 0.008455 0.047604 -1.801521
2008-04-16 08:13:16 51°14.534 2°50.43 15.9617 0.008455 0.047609 -1.766697
2008-04-16 08:14:16 51°14.511 2°50.367 15.9939 0.008455 0.047616 -1.766697
2008-04-16 08:15:16 51°14.484 2°50.294 16.0118 0.008455 0.047623 -1.766697
2008-04-16 08:16:16 51°14.464 2°50.211 16.0235 0.008455 0.04763 -1.766697
2008-04-16 08:17:17 51°14.444 2°50.132 16.0455 0.008455 0.047637 -1.766697
2008-04-16 08:18:17 51°14.424 2°50.056 16.0582 0.008455 0.047645 -1.766697
2008-04-16 08:19:16 51°14.405 2°49.983 16.0672 0.008455 0.047652 -1.766697
2008-04-16 08:20:16 51°14.387 2°49.908 16.0823 0.008455 0.047659 -1.766697
2008-04-16 08:21:16 51°14.369 2°49.834 16.097 0.008455 0.047668 -1.766697
2008-04-16 08:22:17 51°14.351 2°49.76 16.1172 0.008455 0.047675 -1.801521
2008-04-16 08:23:17 51°14.334 2°49.688 15.6074 0.008455 0.047683 -1.766697
2008-04-16 08:24:16 51°14.316 2°49.618 15.7825 0.008455 0.047691 -1.766697
2008-04-16 08:25:17 51°14.299 2°49.546 15.8065 0.008455 0.047699 -1.801521
2008-04-16 08:26:16 51°14.282 2°49.478 15.8453 0.008455 0.047706 -1.766697
2008-04-16 08:27:16 51°14.265 2°49.408 15.8165 0.008455 0.047715 -1.766697
2008-04-16 08:28:16 51°14.249 2°49.336 15.8742 0.008455 0.047723 -1.766697
2008-04-16 08:29:16 51°14.232 2°49.264 15.8694 0.008455 0.04773 -1.766697
2008-04-16 08:30:16 51°14.215 2°49.193 15.8611 0.008455 0.047739 -1.766697
2008-04-16 08:31:16 51°14.199 2°49.122 15.8863 0.008455 0.047747 -1.766697
2008-04-16 08:32:17 51°14.182 2°49.051 15.9237 0.008455 0.047756 -1.766697
2008-04-16 08:33:17 51°14.167 2°48.979 15.9268 0.008455 0.047762 -1.766697
2008-04-16 08:34:17 51°14.175 2°48.904 15.9681 0.008455 0.047771 -1.766697
2008-04-16 08:35:16 51°14.209 2°48.84 15.9981 0.008455 0.04778 -1.766697
2008-04-16 08:36:16 51°14.267 2°48.831 16.0139 0.008455 0.047786 -1.766697
2008-04-16 08:37:16 51°14.314 2°48.876 16.0166 0.008455 0.047796 -1.766697
2008-04-16 08:38:16 51°14.347 2°48.919 16.0153 0.008455 0.047806 -1.766697
2008-04-16 08:39:17 51°14.379 2°48.964 16.0611 0.008455 0.047814 -1.766697
2008-04-16 08:40:16 51°14.427 2°49.073 16.0915 0.008455 0.047822 -1.766697
2008-04-16 08:41:16 51°14.458 2°49.183 16.0755 0.008455 0.04783 -1.766697
2008-04-16 08:42:16 51°14.479 2°49.263 16.106 0.008455 0.047835 -1.801521
2008-04-16 08:43:17 51°14.502 2°49.327 16.1046 0.008455 0.047842 -1.766697
2008-04-16 08:44:16 51°14.528 2°49.383 16.1261 0.008455 0.047849 -1.766697
2008-04-16 08:45:16 51°14.556 2°49.448 16.1346 0.008455 0.047857 -1.801521
2008-04-16 08:46:16 51°14.581 2°49.519 16.1471 0.008455 0.047865 -1.766697
2008-04-16 08:47:16 51°14.603 2°49.594 16.1654 0.008352 0.047358 -1.801521
2008-04-16 08:48:17 51°14.625 2°49.671 16.1841 0.008352 0.047364 -1.766697
2008-04-16 08:49:16 51°14.645 2°49.747 16.1889 0.008455 0.047885 -1.766697
2008-04-16 08:50:16 51°14.666 2°49.825 16.1946 0.008455 0.047893 -1.766697
2008-04-16 08:51:16 51°14.687 2°49.904 16.2192 0.008352 0.047388 -1.766697
2008-04-16 08:52:17 51°14.709 2°49.986 16.2176 0.008352 0.047395 -1.766697
2008-04-16 08:53:17 51°14.731 2°50.064 16.2331 0.008352 0.047403 -1.766697
2008-04-16 08:53:56 51°14.732 2°54.92 15.813 0.008558 0.047654 -1.801521
2008-04-16 08:54:32 51°14.759 2°50.163 16.2423 0.008352 0.047413 -1.766697
2008-04-16 08:55:31 51°14.78 2°50.242 16.6071 0.008352 0.047422 -1.766697
2008-04-16 08:56:32 51°14.802 2°50.324 16.529 0.008352 0.04743 -1.766697
2008-04-16 08:57:31 51°14.824 2°50.402 16.5243 0.008352 0.047439 -1.766697
2008-04-16 08:58:32 51°14.846 2°50.483 16.5369 0.008352 0.047448 -1.766697
2008-04-16 08:59:32 51°14.867 2°50.564 16.541 0.008352 0.047457 -1.766697
2008-04-16 09:00:32 51°14.889 2°50.645 16.5526 0.008352 0.047465 -1.766697
2008-04-16 09:01:32 51°14.91 2°50.726 16.5641 0.008352 0.047474 -1.801521
2008-04-16 09:02:31 51°14.931 2°50.807 16.575 0.008352 0.047484 -1.801521
2008-04-16 09:03:32 51°14.952 2°50.89 16.584 0.008352 0.047492 -1.766697
2008-04-16 09:04:33 51°14.97 2°50.973 16.5899 0.008352 0.0475 -1.766697
2008-04-16 09:05:33 51°14.985 2°51.051 16.615 0.008352 0.04751 -1.766697
2008-04-16 09:06:33 51°15.002 2°51.127 16.6394 0.008352 0.047519 -1.766697
2008-04-16 09:07:33 51°15.009 2°51.199 16.6422 0.008352 0.047528 -1.766697
2008-04-16 09:08:31 51°15.011 2°51.247 16.6599 0.008352 0.047537 -1.766697
2008-04-16 09:09:32 51°15.016 2°51.286 16.6769 0.008352 0.047545 -1.801521
2008-04-16 09:10:32 51°15.019 2°51.318 16.6762 0.008352 0.047554 -1.801521
2008-04-16 09:11:32 51°15.016 2°51.39 16.6982 0.008352 0.047562 -1.801521
2008-04-16 09:12:32 51°15.009 2°51.645 16.7565 0.008352 0.047569 -1.766697
2008-04-16 09:13:32 51°14.978 2°51.989 16.7643 0.008352 0.04758 -1.766697
2008-04-16 09:14:32 51°14.946 2°52.339 16.7792 0.008352 0.047587 -1.766697
2008-04-16 09:15:32 51°14.912 2°52.689 16.7861 0.008352 0.047595 -1.766697
2008-04-16 09:16:32 51°14.878 2°53.039 16.8028 0.008352 0.047605 -1.766697
2008-04-16 09:17:32 51°14.805 2°53.367 16.8191 0.008352 0.047614 -1.766697
2008-04-16 09:18:32 51°14.701 2°53.663 16.8549 0.008352 0.047629 -1.766697
2008-04-16 09:19:32 51°14.628 2°53.983 16.8472 0.008352 0.047636 -1.766697
2008-04-16 09:20:32 51°14.56 2°54.316 16.8774 0.008352 0.047649 -1.766697
2008-04-16 09:21:32 51°14.483 2°54.641 16.8797 0.008352 0.047658 -1.766697
2008-04-16 09:22:31 51°14.417 2°54.883 16.8793 0.008352 0.047669 -1.766697
2008-04-16 09:23:32 51°14.34 2°55.082 16.8928 0.008352 0.047682 -1.801521
2008-04-16 09:24:31 51°14.254 2°55.243 16.9052 0.008352 0.047691 -1.766697
2008-04-16 09:25:35 51°14.13 2°55.402 16.9313 0.008352 0.047703 -1.766697
2008-04-16 09:26:35 51°14.014 2°55.486 16.9295 0.008352 0.047715 -1.766697
2008-04-16 09:27:35 51°13.915 2°55.56 16.9439 0.008352 0.047726 -1.801521
2008-04-16 09:28:35 51°13.817 2°55.636 16.9533 0.008249 0.047218 -1.766697
2008-04-16 09:29:34 51°13.726 2°55.76 16.9677 0.008352 0.047749 -1.801521
2008-04-16 09:30:35 51°13.684 2°55.879 16.98 0.008352 0.047758 -1.766697
2008-04-16 09:31:35 51°13.668 2°55.945 16.1483 0.008352 0.047769 -1.766697
2008-04-16 09:32:33 51°13.664 2°55.955 16.4621 0.008352 0.047779 -1.801521
2008-04-16 09:33:35 51°13.665 2°55.956 16.4636 0.008352 0.04779 -1.766697
2008-04-16 09:34:35 51°13.665 2°55.955 16.4482 0.008249 0.047285 -1.766697
2008-04-16 09:35:35 51°13.665 2°55.955 16.4831 0.008249 0.047291 -1.766697
2008-04-16 09:36:35 51°13.665 2°55.955 16.4851 0.008249 0.0473 -1.801521
2008-04-16 09:37:35 51°13.665 2°55.955 16.5138 0.008249 0.047306 -1.766697
2008-04-16 09:38:35 51°13.665 2°55.955 16.5197 0.008249 0.047313 -1.801521
2008-04-16 09:39:35 51°13.665 2°55.955 16.5641 0.008249 0.047321 -1.766697
2008-04-16 09:40:35 51°13.665 2°55.955 16.5683 0.008249 0.047327 -1.766697
2008-04-16 09:41:35 51°13.665 2°55.955 16.5848 0.008249 0.047335 -1.766697
2008-04-16 09:42:35 51°13.665 2°55.956 16.5891 0.008249 0.047342 -1.801521
2008-04-16 09:43:35 51°13.665 2°55.956 16.6147 0.008249 0.047349 -1.801521
2008-04-16 09:44:35 51°13.665 2°55.955 16.6353 0.008249 0.047356 -1.801521
2008-04-16 09:45:36 51°13.665 2°55.955 16.6314 0.008249 0.047363 -1.801521
2008-04-16 09:46:35 51°13.665 2°55.955 16.6497 0.008249 0.04737 -1.766697
2008-04-16 09:47:35 51°13.665 2°55.955 16.6792 0.008249 0.047377 -1.766697
2008-04-16 09:48:35 51°13.665 2°55.956 16.6813 0.008249 0.047384 -1.766697
2008-04-16 09:49:35 51°13.666 2°55.955 16.6959 0.008249 0.04739 -1.766697
2008-04-16 09:50:35 51°13.666 2°55.955 16.7009 0.008249 0.047396 -1.766697
2008-04-16 09:51:35 51°13.666 2°55.954 16.7029 0.008249 0.047402 -1.766697
2008-04-16 09:52:35 51°13.665 2°55.954 16.7328 0.008249 0.047407 -1.766697
2008-04-16 09:53:35 51°13.665 2°55.955 16.7364 0.008249 0.047413 -1.766697
2008-04-16 09:54:35 51°13.665 2°55.955 16.7468 0.008249 0.047419 -1.766697
2008-04-16 09:55:35 51°13.665 2°55.955 16.7466 0.008249 0.047424 -1.801521
2008-04-16 09:56:35 51°13.665 2°55.955 16.7575 0.008249 0.047429 -1.766697
2008-04-16 09:57:35 51°13.665 2°55.955 16.7788 0.008249 0.047435 -1.766697
2008-04-16 09:58:35 51°13.667 2°55.956 16.7823 0.008249 0.04744 -1.766697
2008-04-16 09:59:35 51°13.666 2°55.955 16.7884 0.008249 0.047445 -1.766697
2008-04-16 10:00:35 51°13.666 2°55.956 16.7906 0.008249 0.047451 -1.801521
2008-04-16 10:01:35 51°13.666 2°55.956 16.8093 0.008249 0.047456 -1.766697
2008-04-16 10:02:35 51°13.667 2°55.956 16.8112 0.008249 0.047461 -1.766697
2008-04-16 10:03:35 51°13.666 2°55.956 16.8193 0.008249 0.047466 -1.766697
2008-04-16 10:04:35 51°13.666 2°55.956 16.8217 0.008249 0.047471 -1.801521
2008-04-16 10:05:35 51°13.666 2°55.956 16.8324 0.008249 0.047475 -1.766697
2008-04-16 10:06:35 51°13.666 2°55.955 16.8371 0.008249 0.047481 -1.766697
2008-04-16 10:07:35 51°13.666 2°55.955 16.8475 0.008249 0.047485 -1.766697
2008-04-16 10:08:35 51°13.666 2°55.955 16.8518 0.008249 0.04749 -1.766697
2008-04-16 10:09:35 51°13.665 2°55.955 16.8604 0.008249 0.047495 -1.801521
2008-04-16 10:10:35 51°13.666 2°55.955 16.8773 0.008249 0.047499 -1.801521
2008-04-16 10:11:35 51°13.665 2°55.953 16.8817 0.008249 0.047504 -1.766697
2008-04-16 10:12:35 51°13.666 2°55.954 16.8855 0.008249 0.047509 -1.766697
2008-04-16 10:13:35 51°13.666 2°55.954 16.8975 0.008249 0.047513 -1.801521
2008-04-16 10:14:35 51°13.666 2°55.954 16.8988 0.008249 0.047517 -1.801521
2008-04-16 10:15:35 51°13.666 2°55.954 16.9058 0.008249 0.047522 -1.801521
2008-04-16 10:16:35 51°13.666 2°55.954 16.9124 0.008249 0.047525 -1.766697
2008-04-16 10:17:35 51°13.666 2°55.955 16.9209 0.008249 0.04753 -1.766697
2008-04-16 10:18:35 51°13.665 2°55.954 16.9256 0.008249 0.047534 -1.801521
2008-04-16 10:19:35 51°13.665 2°55.954 16.931 0.008249 0.047538 -1.801521
2008-04-16 10:20:35 51°13.665 2°55.954 16.9381 0.008249 0.047542 -1.801521
2008-04-16 10:21:35 51°13.665 2°55.954 16.945 0.008249 0.047546 -1.801521
2008-04-16 10:22:35 51°13.665 2°55.954 16.9513 0.008249 0.04755 -1.801521
2008-04-16 10:23:35 51°13.665 2°55.954 16.9603 0.008249 0.047553 -1.766697
2008-04-16 10:24:35 51°13.665 2°55.955 16.9654 0.008249 0.047557 -1.766697
2008-04-16 10:25:35 51°13.665 2°55.954 16.9684 0.008249 0.047561 -1.801521
2008-04-16 10:26:35 51°13.666 2°55.954 16.9778 0.008249 0.047565 -1.766697
2008-04-16 10:27:35 51°13.666 2°55.953 16.9827 0.008249 0.047569 -1.766697
2008-04-16 10:28:36 51°13.666 2°55.953 16.9902 0.008249 0.047572 -1.766697
2008-04-16 10:29:35 51°13.666 2°55.954 16.9898 0.008249 0.047576 -1.801521
2008-04-16 10:30:36 51°13.666 2°55.953 16.9944 0.008249 0.047579 -1.766697
2008-04-16 10:31:35 51°13.665 2°55.953 17.0014 0.008249 0.047583 -1.801521
2008-04-16 10:32:36 51°13.665 2°55.953 17.0065 0.008249 0.047587 -1.801521
2008-04-16 10:33:35 51°13.665 2°55.953 17.0175 0.008249 0.047591 -1.766697
2008-04-16 10:34:36 51°13.665 2°55.953 17.0225 0.008249 0.047595 -1.766697
2008-04-16 10:35:35 51°13.665 2°55.953 17.0357 0.008249 0.047598 -1.801521
2008-04-16 10:36:36 51°13.665 2°55.953 17.0494 0.008249 0.047601 -1.801521
2008-04-16 10:37:35 51°13.666 2°55.953 17.044 0.008249 0.047604 -1.766697
2008-04-16 10:38:36 51°13.666 2°55.953 17.0413 0.008249 0.047608 -1.801521
2008-04-16 10:39:35 51°13.666 2°55.954 17.0687 0.008249 0.047611 -1.766697
2008-04-16 10:40:36 51°13.666 2°55.954 17.0621 0.008249 0.047614 -1.766697
2008-04-16 10:41:35 51°13.666 2°55.955 17.0621 0.008249 0.047617 -1.801521
2008-04-16 10:42:36 51°13.666 2°55.954 17.0694 0.008249 0.04762 -1.766697
2008-04-16 10:43:35 51°13.666 2°55.955 17.0736 0.008249 0.047623 -1.801521
2008-04-16 10:44:36 51°13.666 2°55.955 17.0783 0.008249 0.047626 -1.766697
2008-04-16 10:45:35 51°13.666 2°55.955 17.0815 0.008249 0.047629 -1.801521
2008-04-16 10:46:36 51°13.666 2°55.955 17.079 0.008249 0.047632 -1.766697
2008-04-16 10:47:35 51°13.666 2°55.955 17.0915 0.008249 0.047634 -1.801521
2008-04-16 10:48:36 51°13.667 2°55.955 17.099 0.008249 0.047638 -1.766697
2008-04-16 10:49:35 51°13.667 2°55.955 17.0917 0.008249 0.04764 -1.766697
2008-04-16 10:50:36 51°13.667 2°55.955 17.0997 0.008249 0.047643 -1.766697
2008-04-16 10:51:35 51°13.667 2°55.955 17.112 0.008249 0.047646 -1.801521
2008-04-16 10:52:36 51°13.667 2°55.955 17.1131 0.008249 0.047649 -1.801521
2008-04-16 10:53:35 51°13.668 2°55.955 17.117 0.008249 0.047651 -1.801521
2008-04-16 10:54:36 51°13.667 2°55.955 17.1277 0.008249 0.047654 -1.801521
2008-04-16 10:55:35 51°13.667 2°55.955 17.1267 0.008249 0.047657 -1.801521
2008-04-16 10:56:36 51°13.666 2°55.955 17.1433 0.008249 0.047659 -1.766697
2008-04-16 10:57:35 51°13.667 2°55.955 17.1322 0.008249 0.047662 -1.766697
2008-04-16 10:58:36 51°13.667 2°55.955 17.1448 0.008249 0.047664 -1.801521
2008-04-16 10:59:35 51°13.667 2°55.955 17.1505 0.008249 0.047666 -1.801521
2008-04-16 11:00:36 51°13.667 2°55.955 17.1631 0.008249 0.047669 -1.801521
2008-04-16 11:01:35 51°13.666 2°55.955 17.153 0.008249 0.047671 -1.766697
2008-04-16 11:02:36 51°13.665 2°55.955 17.1682 0.008249 0.047673 -1.766697
2008-04-16 11:03:35 51°13.666 2°55.955 17.1661 0.008249 0.047676 -1.801521
2008-04-16 11:04:36 51°13.665 2°55.954 17.1668 0.008249 0.047678 -1.766697
2008-04-16 11:05:35 51°13.666 2°55.955 17.1724 0.008249 0.047681 -1.766697
2008-04-16 11:06:36 51°13.666 2°55.955 17.1862 0.008249 0.047683 -1.801521
2008-04-16 11:07:35 51°13.667 2°55.955 17.1913 0.008249 0.047685 -1.766697
2008-04-16 11:08:36 51°13.666 2°55.954 17.1947 0.008249 0.047687 -1.766697
2008-04-16 11:09:36 51°13.666 2°55.954 17.2008 0.008249 0.047689 -1.766697
2008-04-16 11:10:36 51°13.667 2°55.954 17.2066 0.008249 0.047691 -1.766697
2008-04-16 11:11:36 51°13.667 2°55.954 17.2057 0.008249 0.047693 -1.766697
2008-04-16 11:12:36 51°13.666 2°55.954 17.2246 0.008249 0.047695 -1.766697
2008-04-16 11:13:36 51°13.667 2°55.955 17.2131 0.008249 0.047697 -1.766697
2008-04-16 11:14:36 51°13.666 2°55.955 17.2129 0.008249 0.047699 -1.766697
2008-04-16 11:15:36 51°13.666 2°55.954 17.2197 0.008249 0.0477 -1.801521
2008-04-16 11:16:36 51°13.666 2°55.953 17.2228 0.008249 0.047702 -1.766697
2008-04-16 11:17:36 51°13.665 2°55.953 17.2404 0.008249 0.047704 -1.766697
2008-04-16 11:18:35 51°13.665 2°55.953 17.2407 0.008249 0.047705 -1.801521
2008-04-16 11:19:36 51°13.665 2°55.953 17.2411 0.008249 0.047707 -1.766697
2008-04-16 11:20:35 51°13.666 2°55.953 17.2641 0.008249 0.047709 -1.766697
2008-04-16 11:21:36 51°13.665 2°55.954 17.2617 0.008249 0.04771 -1.766697
2008-04-16 11:22:35 51°13.665 2°55.954 17.2634 0.008249 0.047711 -1.801521
2008-04-16 11:23:36 51°13.665 2°55.954 17.2694 0.008249 0.047713 -1.801521
2008-04-16 11:24:35 51°13.665 2°55.954 17.2711 0.008249 0.047714 -1.766697
2008-04-16 11:25:36 51°13.665 2°55.954 17.2549 0.008249 0.047715 -1.801521
2008-04-16 11:26:36 51°13.665 2°55.955 17.2678 0.008249 0.047717 -1.801521
2008-04-16 11:27:36 51°13.665 2°55.954 17.2798 0.008249 0.047718 -1.801521
2008-04-16 11:28:36 51°13.665 2°55.955 17.2779 0.008249 0.047718 -1.766697
2008-04-16 11:29:36 51°13.665 2°55.955 17.283 0.008249 0.04772 -1.801521
2008-04-16 11:30:36 51°13.665 2°55.954 17.28 0.008249 0.047721 -1.766697
2008-04-16 11:31:36 51°13.665 2°55.954 17.302 0.008249 0.047721 -1.766697
2008-04-16 11:32:35 51°13.665 2°55.954 17.334 0.008249 0.047722 -1.801521
2008-04-16 11:33:36 51°13.665 2°55.954 17.3044 0.008249 0.047723 -1.766697
2008-04-16 11:34:35 51°13.665 2°55.954 17.3369 0.008249 0.047724 -1.766697
2008-04-16 11:35:36 51°13.665 2°55.954 17.3167 0.008249 0.047725 -1.801521
2008-04-16 11:36:35 51°13.665 2°55.954 17.334 0.008249 0.047726 -1.766697
2008-04-16 11:37:36 51°13.665 2°55.954 17.325 0.008249 0.047726 -1.766697
2008-04-16 11:38:36 51°13.665 2°55.954 17.3502 0.008249 0.047727 -1.801521
2008-04-16 11:39:36 51°13.665 2°55.954 17.3382 0.008249 0.047727 -1.801521
2008-04-16 11:40:36 51°13.665 2°55.955 17.3582 0.008249 0.047728 -1.766697
2008-04-16 11:41:36 51°13.665 2°55.954 17.3475 0.008249 0.047728 -1.801521
2008-04-16 11:42:36 51°13.665 2°55.954 17.3522 0.008249 0.047729 -1.766697
2008-04-16 11:43:36 51°13.665 2°55.953 17.3741 0.008249 0.047729 -1.766697
2008-04-16 11:44:36 51°13.665 2°55.953 17.3653 0.008249 0.04773 -1.766697
2008-04-16 11:45:36 51°13.665 2°55.954 17.3948 0.008249 0.04773 -1.766697
2008-04-16 11:46:35 51°13.665 2°55.955 17.3805 0.008249 0.047731 -1.801521
2008-04-16 11:47:36 51°13.665 2°55.955 17.3995 0.008249 0.047731 -1.766697
2008-04-16 11:48:35 51°13.665 2°55.954 17.3965 0.008249 0.047732 -1.801521
2008-04-16 11:49:36 51°13.665 2°55.954 17.4039 0.008249 0.047732 -1.766697
2008-04-16 11:50:35 51°13.666 2°55.954 17.4196 0.008249 0.047732 -1.766697
2008-04-16 11:51:36 51°13.665 2°55.954 17.4282 0.008249 0.047733 -1.801521
2008-04-16 11:52:35 51°13.665 2°55.954 17.399 0.008249 0.047733 -1.766697
2008-04-16 11:53:36 51°13.665 2°55.954 17.3977 0.008249 0.047733 -1.801521
2008-04-16 11:54:35 51°13.666 2°55.955 17.4186 0.008249 0.047733 -1.801521
2008-04-16 11:55:36 51°13.665 2°55.953 17.4288 0.008249 0.047733 -1.801521
2008-04-16 11:56:36 51°13.665 2°55.955 17.4029 0.008352 0.048263 -1.766697
2008-04-16 11:57:36 51°13.665 2°55.955 17.4193 0.008249 0.047733 -1.766697
2008-04-16 11:58:35 51°13.665 2°55.955 17.4297 0.008352 0.048262 -1.766697
2008-04-16 11:59:36 51°13.665 2°55.955 17.4359 0.008249 0.047732 -1.766697
2008-04-16 12:00:35 51°13.665 2°55.955 17.4384 0.008352 0.048261 -1.766697
2008-04-16 12:01:36 51°13.665 2°55.956 17.4492 0.008249 0.047731 -1.766697
2008-04-16 12:02:35 51°13.664 2°55.956 17.4923 0.008352 0.04826 -1.801521
2008-04-16 12:03:36 51°13.677 2°55.91 17.4749 0.008352 0.048259 -1.766697
2008-04-16 12:04:35 51°13.693 2°55.819 17.4855 0.008352 0.048258 -1.801521
2008-04-16 12:05:35 51°13.697 2°55.734 17.5009 0.008352 0.048257 -1.801521
2008-04-16 12:06:35 51°13.706 2°55.736 17.394 0.008352 0.048259 -1.801521
2008-04-16 12:07:35 51°13.708 2°55.715 17.5109 0.008352 0.048257 -1.766697
2008-04-16 12:08:35 51°13.774 2°55.663 17.4477 0.008352 0.048255 -1.801521
2008-04-16 12:09:34 51°13.829 2°55.632 17.4555 0.008352 0.048255 -1.766697
2008-04-16 12:10:34 51°13.869 2°55.628 17.5149 0.008352 0.048255 -1.766697
2008-04-16 12:11:36 51°13.9 2°55.633 17.5208 0.008352 0.048255 -1.801521
2008-04-16 12:12:36 51°13.918 2°55.635 17.4971 0.008352 0.048255 -1.801521
2008-04-16 12:13:36 51°13.93 2°55.641 17.5187 0.008352 0.048257 -1.766697
2008-04-16 12:14:36 51°13.938 2°55.646 17.5248 0.008352 0.048258 -1.801521
2008-04-16 12:15:36 51°13.947 2°55.65 17.5311 0.008352 0.04826 -1.801521
2008-04-16 12:16:36 51°13.961 2°55.651 17.519 0.008352 0.048263 -1.766697
2008-04-16 12:17:36 51°13.944 2°55.658 17.5378 0.008352 0.048264 -1.766697
2008-04-16 12:18:35 51°13.947 2°55.648 17.5507 0.008352 0.048266 -1.801521
2008-04-16 12:19:36 51°14.011 2°55.566 17.4306 0.008352 0.048268 -1.766697
2008-04-16 12:20:36 51°14.119 2°55.439 17.5103 0.008352 0.048271 -1.801521
2008-04-16 12:21:36 51°14.23 2°55.308 17.5538 0.008352 0.048274 -1.801521
2008-04-16 12:22:34 51°14.314 2°55.146 17.5437 0.008352 0.048277 -1.766697
2008-04-16 12:23:34 51°14.385 2°54.941 17.5652 0.008352 0.04828 -1.766697
2008-04-16 12:24:33 51°14.415 2°54.661 17.5468 0.008352 0.048288 -1.801521
2008-04-16 12:25:32 51°14.371 2°54.35 17.5383 0.008352 0.048291 -1.766697
2008-04-16 12:26:32 51°14.324 2°54.037 17.5202 0.008352 0.048299 -1.801521
2008-04-16 12:27:32 51°14.271 2°53.725 17.5587 0.008352 0.048304 -1.801521
2008-04-16 12:28:32 51°14.223 2°53.412 17.5558 0.008352 0.048308 -1.801521
2008-04-16 12:29:32 51°14.17 2°53.102 17.5548 0.008352 0.048313 -1.766697
2008-04-16 12:30:32 51°14.09 2°52.81 17.5561 0.008352 0.048314 -1.766697
2008-04-16 12:31:32 51°13.994 2°52.532 17.5311 0.008352 0.048318 -1.766697
2008-04-16 12:32:33 51°13.89 2°52.256 17.5672 0.008352 0.048321 -1.766697
2008-04-16 12:33:33 51°13.792 2°51.978 17.577 0.008352 0.048321 -1.766697
2008-04-16 12:34:33 51°13.685 2°51.708 17.5398 0.008352 0.048323 -1.766697
2008-04-16 12:35:33 51°13.583 2°51.431 17.575 0.008352 0.048324 -1.766697
2008-04-16 12:36:33 51°13.479 2°51.158 17.5571 0.008352 0.048327 -1.801521
2008-04-16 12:37:33 51°13.375 2°50.884 17.5663 0.008352 0.048328 -1.801521
2008-04-16 12:38:33 51°13.269 2°50.611 17.5595 0.008352 0.048331 -1.801521
2008-04-16 12:39:33 51°13.16 2°50.34 17.587 0.008352 0.048331 -1.801521
2008-04-16 12:40:33 51°13.062 2°50.056 17.5647 0.008352 0.048335 -1.801521
2008-04-16 12:41:33 51°12.96 2°49.775 17.5649 0.008352 0.048335 -1.801521
2008-04-16 12:42:33 51°12.858 2°49.493 17.601 0.008455 0.048866 -1.801521
2008-04-16 12:43:33 51°12.753 2°49.217 17.5682 0.008352 0.048339 -1.766697
2008-04-16 12:44:33 51°12.65 2°48.936 17.5879 0.008352 0.04834 -1.801521
2008-04-16 12:45:33 51°12.552 2°48.653 17.5942 0.008352 0.04834 -1.801521
2008-04-16 12:46:33 51°12.458 2°48.363 17.5932 0.008352 0.048341 -1.801521
2008-04-16 12:47:33 51°12.363 2°48.075 17.6092 0.008352 0.048341 -1.766697
2008-04-16 12:48:33 51°12.275 2°47.78 17.6112 0.008352 0.048344 -1.801521
2008-04-16 12:49:33 51°12.19 2°47.484 17.6101 0.008352 0.048344 -1.801521
2008-04-16 12:50:33 51°12.105 2°47.187 17.6217 0.008352 0.048345 -1.801521
2008-04-16 12:51:33 51°12.021 2°46.889 17.5922 0.008352 0.048345 -1.801521
2008-04-16 12:52:33 51°11.938 2°46.59 17.6242 0.008352 0.048348 -1.766697
2008-04-16 12:53:33 51°11.851 2°46.293 17.6344 0.008352 0.048348 -1.766697
2008-04-16 12:54:33 51°11.763 2°45.997 17.6009 0.008455 0.048881 -1.766697
2008-04-16 12:55:33 51°11.681 2°45.695 17.6296 0.008352 0.048349 -1.801521
2008-04-16 12:56:33 51°11.598 2°45.393 17.6299 0.008352 0.048349 -1.801521
2008-04-16 12:57:33 51°11.513 2°45.092 17.644 0.008352 0.04835 -1.801521
2008-04-16 12:58:33 51°11.424 2°44.795 17.6452 0.008352 0.048352 -1.766697
2008-04-16 12:59:33 51°11.339 2°44.493 17.61 0.008352 0.048352 -1.766697
2008-04-16 13:00:33 51°11.257 2°44.189 17.6393 0.008352 0.048353 -1.766697
2008-04-16 13:01:33 51°11.172 2°43.886 17.645 0.008455 0.048886 -1.801521
2008-04-16 13:02:33 51°11.088 2°43.582 17.6448 0.008352 0.048356 -1.766697
2008-04-16 13:03:33 51°10.998 2°43.283 17.63 0.008352 0.048358 -1.766697
2008-04-16 13:04:33 51°10.913 2°42.979 17.6689 0.008455 0.048892 -1.801521
2008-04-16 13:05:33 51°10.829 2°42.675 17.6594 0.008352 0.04836 -1.766697
2008-04-16 13:06:33 51°10.74 2°42.374 17.6616 0.008352 0.04836 -1.766697
2008-04-16 13:07:33 51°10.653 2°42.07 17.6412 0.008352 0.048359 -1.801521
2008-04-16 13:08:33 51°10.571 2°41.762 17.6851 0.008352 0.048362 -1.766697
2008-04-16 13:09:33 51°10.487 2°41.456 17.6608 0.008352 0.048363 -1.801521
2008-04-16 13:10:33 51°10.401 2°41.151 17.6862 0.008455 0.048895 -1.766697
2008-04-16 13:11:33 51°10.316 2°40.847 17.6836 0.008455 0.048896 -1.801521
2008-04-16 13:12:33 51°10.233 2°40.539 17.6815 0.008352 0.048365 -1.801521
2008-04-16 13:13:33 51°10.159 2°40.267 17.6962 0.008455 0.048897 -1.801521
2008-04-16 13:14:33 51°10.141 2°40.146 17.712 0.008455 0.048895 -1.801521
2008-04-16 13:15:33 51°10.133 2°40.13 17.7167 0.008455 0.048896 -1.766697
2008-04-16 13:16:33 51°10.124 2°40.114 17.7161 0.008455 0.048897 -1.801521
2008-04-16 13:17:33 51°10.116 2°40.094 17.7226 0.008352 0.048365 -1.801521
2008-04-16 13:18:33 51°10.107 2°40.074 17.7406 0.008455 0.048896 -1.766697
2008-04-16 13:19:33 51°10.099 2°40.053 17.7464 0.008455 0.048897 -1.801521
2008-04-16 13:20:33 51°10.092 2°40.031 17.7407 0.008455 0.048897 -1.801521
2008-04-16 13:21:33 51°10.085 2°40.009 17.7509 0.008352 0.048364 -1.766697
2008-04-16 13:22:33 51°10.077 2°39.986 17.7643 0.008455 0.048896 -1.801521
2008-04-16 13:23:33 51°10.069 2°39.961 17.7817 0.008352 0.048365 -1.766697
2008-04-16 13:24:33 51°10.094 2°39.919 17.7818 0.008455 0.048896 -1.766697
2008-04-16 13:25:33 51°10.134 2°39.938 17.7842 0.008352 0.048364 -1.801521
2008-04-16 13:26:33 51°10.116 2°40.006 17.7859 0.008352 0.048364 -1.801521
2008-04-16 13:27:33 51°10.052 2°40.005 17.7873 0.008352 0.048365 -1.766697
2008-04-16 13:28:33 51°9.993 2°39.949 17.7995 0.008352 0.048364 -1.801521
2008-04-16 13:29:33 51°9.952 2°39.873 17.8027 0.008352 0.048364 -1.766697
2008-04-16 13:30:33 51°9.915 2°39.803 17.8077 0.008352 0.048362 -1.801521
2008-04-16 13:31:33 51°9.885 2°39.729 17.8177 0.008352 0.048362 -1.766697
2008-04-16 13:32:33 51°9.859 2°39.654 17.8156 0.008352 0.048362 -1.801521
2008-04-16 13:33:33 51°9.832 2°39.58 17.8393 0.008352 0.048362 -1.801521
2008-04-16 13:34:33 51°9.805 2°39.506 17.8444 0.008352 0.048362 -1.801521
2008-04-16 13:35:33 51°9.778 2°39.431 17.8477 0.008352 0.048361 -1.801521
2008-04-16 13:36:33 51°9.753 2°39.355 17.8617 0.008352 0.04836 -1.801521
2008-04-16 13:37:33 51°9.729 2°39.279 17.8711 0.008352 0.048361 -1.801521
2008-04-16 13:38:33 51°9.704 2°39.203 17.8903 0.008352 0.048359 -1.801521
2008-04-16 13:39:33 51°9.679 2°39.128 17.897 0.008352 0.048359 -1.801521
2008-04-16 13:40:33 51°9.657 2°39.049 17.9053 0.008352 0.048358 -1.801521
2008-04-16 13:41:33 51°9.638 2°38.97 17.9139 0.008352 0.048356 -1.801521
2008-04-16 13:42:33 51°9.62 2°38.89 17.9269 0.008352 0.048355 -1.801521
2008-04-16 13:43:33 51°9.602 2°38.81 17.9399 0.008352 0.048354 -1.801521
2008-04-16 13:44:33 51°9.583 2°38.731 17.9489 0.008352 0.048353 -1.801521
2008-04-16 13:45:33 51°9.561 2°38.652 17.9641 0.008352 0.048352 -1.766697
2008-04-16 13:46:33 51°9.541 2°38.573 17.9774 0.008352 0.048351 -1.801521
2008-04-16 13:47:33 51°9.521 2°38.493 17.986 0.008352 0.04835 -1.801521
2008-04-16 13:48:33 51°9.503 2°38.414 17.9961 0.008352 0.048349 -1.801521
2008-04-16 13:49:33 51°9.484 2°38.335 18.0103 0.008455 0.04888 -1.801521
2008-04-16 13:50:33 51°9.466 2°38.255 18.022 0.008352 0.048347 -1.801521
2008-04-16 13:51:33 51°9.447 2°38.175 18.0351 0.008352 0.048346 -1.801521
2008-04-16 13:52:33 51°9.431 2°38.094 18.053 0.008352 0.048345 -1.801521
2008-04-16 13:53:33 51°9.417 2°38.014 18.0657 0.008455 0.048877 -1.766697
2008-04-16 13:54:33 51°9.404 2°37.937 18.078 0.008352 0.048343 -1.801521
2008-04-16 13:55:33 51°9.398 2°37.862 18.0894 0.008455 0.048873 -1.766697
2008-04-16 13:56:33 51°9.404 2°37.797 18.1043 0.008455 0.048873 -1.766697
2008-04-16 13:57:33 51°9.406 2°37.743 18.1152 0.008455 0.048874 -1.766697
2008-04-16 13:58:33 51°9.405 2°37.696 18.1322 0.008455 0.048873 -1.766697
2008-04-16 13:59:33 51°9.402 2°37.653 18.1445 0.008352 0.04834 -1.801521
2008-04-16 14:00:33 51°9.398 2°37.61 18.1588 0.008455 0.04887 -1.801521
2008-04-16 14:01:33 51°9.422 2°37.564 18.1749 0.008455 0.04887 -1.801521
2008-04-16 14:02:33 51°9.459 2°37.597 18.1804 0.008352 0.048336 -1.766697
2008-04-16 14:03:33 51°9.499 2°37.775 18.1873 0.008352 0.048335 -1.766697
2008-04-16 14:04:33 51°9.561 2°38.032 18.1983 0.008352 0.048336 -1.766697
2008-04-16 14:05:33 51°9.628 2°38.304 18.2072 0.008455 0.048868 -1.766697
2008-04-16 14:06:33 51°9.69 2°38.579 18.2219 0.008455 0.048872 -1.801521
2008-04-16 14:07:33 51°9.758 2°38.849 18.228 0.008352 0.048344 -1.801521
2008-04-16 14:08:33 51°9.836 2°39.111 18.2381 0.008455 0.048879 -1.766697
2008-04-16 14:09:33 51°9.905 2°39.378 18.2509 0.008455 0.048884 -1.801521
2008-04-16 14:10:33 51°9.978 2°39.644 18.2626 0.008455 0.048888 -1.801521
2008-04-16 14:11:33 51°10.054 2°39.908 18.2722 0.008455 0.048892 -1.766697
2008-04-16 14:12:33 51°10.129 2°40.172 18.2844 0.008455 0.048897 -1.766697
2008-04-16 14:13:33 51°10.201 2°40.439 18.2947 0.008455 0.048903 -1.801521
2008-04-16 14:14:33 51°10.273 2°40.707 18.3047 0.008455 0.048908 -1.801521
2008-04-16 14:15:33 51°10.348 2°40.972 18.3152 0.008455 0.048914 -1.766697
2008-04-16 14:16:33 51°10.422 2°41.238 18.3252 0.008455 0.048919 -1.766697
2008-04-16 14:17:33 51°10.497 2°41.503 18.3324 0.008455 0.048926 -1.801521
2008-04-16 14:18:33 51°10.563 2°41.773 18.3459 0.008352 0.048399 -1.801521
2008-04-16 14:19:33 51°10.632 2°42.041 18.3554 0.008455 0.048938 -1.801521
2008-04-16 14:20:33 51°10.706 2°42.307 18.3662 0.008455 0.048943 -1.766697
2008-04-16 14:21:33 51°10.78 2°42.571 18.3748 0.008455 0.048949 -1.766697
2008-04-16 14:22:33 51°10.851 2°42.838 18.3827 0.008455 0.048955 -1.766697
2008-04-16 14:23:33 51°10.923 2°43.104 18.3927 0.008352 0.048427 -1.801521
2008-04-16 14:24:33 51°10.998 2°43.366 18.4003 0.008455 0.048966 -1.766697
2008-04-16 14:25:33 51°11.072 2°43.629 18.4097 0.008352 0.048439 -1.766697
2008-04-16 14:26:33 51°11.141 2°43.896 18.4186 0.008352 0.048445 -1.766697
2008-04-16 14:27:33 51°11.211 2°44.164 18.4272 0.008352 0.048451 -1.766697
2008-04-16 14:28:33 51°11.282 2°44.431 18.4349 0.008352 0.048457 -1.766697
2008-04-16 14:29:33 51°11.357 2°44.693 18.4429 0.008352 0.048463 -1.801521
2008-04-16 14:30:33 51°11.434 2°44.954 18.4521 0.008352 0.048468 -1.766697
2008-04-16 14:31:33 51°11.508 2°45.216 18.4611 0.008352 0.048475 -1.766697
2008-04-16 14:32:33 51°11.583 2°45.478 18.4697 0.008352 0.048481 -1.801521
2008-04-16 14:33:33 51°11.657 2°45.74 18.4806 0.008352 0.048487 -1.801521
2008-04-16 14:34:33 51°11.732 2°46.002 18.4874 0.008352 0.048494 -1.801521
2008-04-16 14:35:33 51°11.805 2°46.264 18.4966 0.008352 0.048499 -1.766697
2008-04-16 14:36:33 51°11.878 2°46.526 18.5056 0.008352 0.048505 -1.801521
2008-04-16 14:37:33 51°11.952 2°46.786 18.5155 0.008352 0.048511 -1.766697
2008-04-16 14:38:33 51°12.025 2°47.046 18.5229 0.008352 0.048516 -1.801521
2008-04-16 14:39:33 51°12.101 2°47.305 18.5332 0.008352 0.048522 -1.801521
2008-04-16 14:40:33 51°12.184 2°47.558 18.5405 0.008352 0.048526 -1.766697
2008-04-16 14:41:33 51°12.268 2°47.811 18.5493 0.008352 0.048532 -1.766697
2008-04-16 14:42:33 51°12.355 2°48.062 18.5596 0.008352 0.048537 -1.766697
2008-04-16 14:43:33 51°12.445 2°48.312 18.5661 0.008352 0.048541 -1.766697
2008-04-16 14:44:33 51°12.539 2°48.556 18.5786 0.008352 0.048546 -1.766697
2008-04-16 14:45:33 51°12.627 2°48.805 18.5865 0.008352 0.048551 -1.766697
2008-04-16 14:46:33 51°12.715 2°49.053 18.5964 0.008352 0.048558 -1.766697
2008-04-16 14:47:33 51°12.805 2°49.297 18.6039 0.008352 0.048564 -1.801521
2008-04-16 14:48:33 51°12.896 2°49.54 18.6125 0.008352 0.04857 -1.801521
2008-04-16 14:49:33 51°12.986 2°49.783 18.6216 0.008352 0.048577 -1.801521
2008-04-16 14:50:33 51°13.076 2°50.025 18.6305 0.008352 0.048584 -1.766697
2008-04-16 14:51:33 51°13.165 2°50.267 18.6384 0.008352 0.04859 -1.766697
2008-04-16 14:52:33 51°13.254 2°50.509 18.647 0.008352 0.048596 -1.801521
2008-04-16 14:53:33 51°13.343 2°50.751 18.6561 0.008352 0.048603 -1.766697
2008-04-16 14:54:33 51°13.432 2°50.993 18.6631 0.008352 0.048609 -1.801521
2008-04-16 14:55:33 51°13.52 2°51.234 18.6744 0.008352 0.048618 -1.766697
2008-04-16 14:56:33 51°13.605 2°51.472 18.6824 0.008352 0.048625 -1.801521
2008-04-16 14:57:33 51°13.69 2°51.713 18.1489 0.008352 0.048631 -1.766697
2008-04-16 14:58:33 51°13.77 2°51.956 18.1598 0.008352 0.048638 -1.766697
2008-04-16 14:59:33 51°13.855 2°52.194 18.2085 0.008352 0.048644 -1.766697
2008-04-16 15:00:33 51°13.937 2°52.436 18.2253 0.008352 0.04865 -1.766697
2008-04-16 15:01:33 51°14.019 2°52.679 18.2529 0.008352 0.048657 -1.766697
2008-04-16 15:02:33 51°14.1 2°52.922 18.1667 0.008352 0.048663 -1.766697
2008-04-16 15:03:33 51°14.18 2°53.168 18.1607 0.008352 0.048669 -1.801521
2008-04-16 15:04:33 51°14.251 2°53.417 18.2429 0.008352 0.048674 -1.801521
2008-04-16 15:05:33 51°14.296 2°53.683 18.319 0.008249 0.048141 -1.766697
2008-04-16 15:06:33 51°14.329 2°53.958 18.2349 0.008352 0.048684 -1.766697
2008-04-16 15:07:33 51°14.354 2°54.234 18.2881 0.008352 0.048688 -1.766697
2008-04-16 15:08:33 51°14.387 2°54.509 18.3202 0.008352 0.048693 -1.766697
2008-04-16 15:09:33 51°14.396 2°54.761 18.2541 0.008352 0.048695 -1.766697
2008-04-16 15:10:33 51°14.365 2°55.002 18.339 0.008249 0.048162 -1.766697
2008-04-16 15:11:33 51°14.285 2°55.212 18.2962 0.008249 0.048164 -1.766697
2008-04-16 15:12:37 51°14.172 2°55.366 18.2973 0.008249 0.048167 -1.766697
2008-04-16 15:13:37 51°14.072 2°55.455 18.298 0.008352 0.048706 -1.766697
2008-04-16 15:14:37 51°13.984 2°55.516 18.2448 0.008249 0.048169 -1.766697
2008-04-16 15:15:37 51°13.9 2°55.575 18.3073 0.008249 0.048171 -1.766697
2008-04-16 15:16:37 51°13.824 2°55.63 18.3174 0.008249 0.048174 -1.766697